sensor_id;sensor_type;location;lat;lon;timestamp;temperature;humidity
5617;DHT22;2830;50.656;7.568;2023-12-04T00:02:03;-0.70;99.90
5617;DHT22;2830;50.656;7.568;2023-12-04T00:04:30;-0.70;99.90
5617;DHT22;2830;50.656;7.568;2023-12-04T00:06:57;-0.70;99.90
5617;DHT22;2830;50.656;7.568;2023-12-04T00:09:23;-0.70;99.90
5617;DHT22;2830;50.656;7.568;2023-12-04T00:11:51;-0.60;99.90
5617;DHT22;2830;50.656;7.568;2023-12-04T00:14:18;-0.70;99.90
5617;DHT22;2830;50.656;7.568;2023-12-04T00:16:45;-0.70;99.90
5617;DHT22;2830;50.656;7.568;2023-12-04T00:19:12;-0.70;99.90
5617;DHT22;2830;50.656;7.568;2023-12-04T00:21:39;-0.70;99.90
5617;DHT22;2830;50.656;7.568;2023-12-04T00:24:06;-0.70;99.90
5617;DHT22;2830;50.656;7.568;2023-12-04T00:26:32;-0.70;99.90
5617;DHT22;2830;50.656;7.568;2023-12-04T00:28:59;-0.70;99.90
5617;DHT22;2830;50.656;7.568;2023-12-04T00:31:26;-0.80;99.90
5617;DHT22;2830;50.656;7.568;2023-12-04T00:33:52;-0.80;99.90
5617;DHT22;2830;50.656;7.568;2023-12-04T00:36:19;-0.80;99.90
5617;DHT22;2830;50.656;7.568;2023-12-04T00:38:46;-0.80;99.90
5617;DHT22;2830;50.656;7.568;2023-12-04T00:41:13;-0.80;99.90
5617;DHT22;2830;50.656;7.568;2023-12-04T00:43:39;-0.90;99.90
5617;DHT22;2830;50.656;7.568;2023-12-04T00:46:06;-0.90;99.90
5617;DHT22;2830;50.656;7.568;2023-12-04T00:48:33;-0.90;99.90
5617;DHT22;2830;50.656;7.568;2023-12-04T00:51:00;-0.90;99.90
5617;DHT22;2830;50.656;7.568;2023-12-04T00:53:26;-0.90;99.90
5617;DHT22;2830;50.656;7.568;2023-12-04T00:55:53;-0.90;99.90
5617;DHT22;2830;50.656;7.568;2023-12-04T00:58:20;-0.90;99.90
5617;DHT22;2830;50.656;7.568;2023-12-04T01:00:46;-0.90;99.90
5617;DHT22;2830;50.656;7.568;2023-12-04T01:03:15;-0.80;99.90
5617;DHT22;2830;50.656;7.568;2023-12-04T01:05:42;-0.90;99.90
5617;DHT22;2830;50.656;7.568;2023-12-04T01:08:08;-0.90;99.90
5617;DHT22;2830;50.656;7.568;2023-12-04T01:10:35;-0.90;99.90
5617;DHT22;2830;50.656;7.568;2023-12-04T01:13:02;-0.90;99.90
5617;DHT22;2830;50.656;7.568;2023-12-04T01:15:30;-0.90;99.90
5617;DHT22;2830;50.656;7.568;2023-12-04T01:17:57;-1.00;99.90
5617;DHT22;2830;50.656;7.568;2023-12-04T01:20:27;-1.00;99.90
5617;DHT22;2830;50.656;7.568;2023-12-04T01:22:53;-1.00;99.90
5617;DHT22;2830;50.656;7.568;2023-12-04T01:25:20;-1.00;99.90
5617;DHT22;2830;50.656;7.568;2023-12-04T01:27:46;-1.00;99.90
5617;DHT22;2830;50.656;7.568;2023-12-04T01:30:13;-1.00;99.90
5617;DHT22;2830;50.656;7.568;2023-12-04T01:32:40;-1.00;99.90
5617;DHT22;2830;50.656;7.568;2023-12-04T01:35:07;-1.00;99.90
5617;DHT22;2830;50.656;7.568;2023-12-04T01:37:34;-1.00;99.90
5617;DHT22;2830;50.656;7.568;2023-12-04T01:40:00;-1.00;99.90
5617;DHT22;2830;50.656;7.568;2023-12-04T01:42:27;-1.00;99.90
5617;DHT22;2830;50.656;7.568;2023-12-04T01:44:54;-1.00;99.90
5617;DHT22;2830;50.656;7.568;2023-12-04T01:47:21;-1.00;99.90
5617;DHT22;2830;50.656;7.568;2023-12-04T01:49:48;-1.00;99.90
5617;DHT22;2830;50.656;7.568;2023-12-04T01:52:15;-1.00;99.90
5617;DHT22;2830;50.656;7.568;2023-12-04T01:54:42;-1.00;99.90
5617;DHT22;2830;50.656;7.568;2023-12-04T01:57:09;-1.00;99.90
5617;DHT22;2830;50.656;7.568;2023-12-04T01:59:36;-1.00;99.90
5617;DHT22;2830;50.656;7.568;2023-12-04T02:02:04;-1.00;99.90
5617;DHT22;2830;50.656;7.568;2023-12-04T02:04:31;-1.10;99.90
5617;DHT22;2830;50.656;7.568;2023-12-04T02:06:59;-1.10;99.90
5617;DHT22;2830;50.656;7.568;2023-12-04T02:09:26;-1.10;99.90
5617;DHT22;2830;50.656;7.568;2023-12-04T02:11:53;-1.10;99.90
5617;DHT22;2830;50.656;7.568;2023-12-04T02:14:24;-1.10;99.90
5617;DHT22;2830;50.656;7.568;2023-12-04T02:16:52;-1.10;99.90
5617;DHT22;2830;50.656;7.568;2023-12-04T02:19:21;-1.10;99.90
5617;DHT22;2830;50.656;7.568;2023-12-04T02:21:48;-1.10;99.90
5617;DHT22;2830;50.656;7.568;2023-12-04T02:24:14;-1.10;99.90
5617;DHT22;2830;50.656;7.568;2023-12-04T02:26:48;-1.10;99.90
5617;DHT22;2830;50.656;7.568;2023-12-04T02:29:21;-1.10;99.90
5617;DHT22;2830;50.656;7.568;2023-12-04T02:31:50;-1.10;99.90
5617;DHT22;2830;50.656;7.568;2023-12-04T02:34:18;-1.10;99.90
5617;DHT22;2830;50.656;7.568;2023-12-04T02:36:47;-1.10;99.90
5617;DHT22;2830;50.656;7.568;2023-12-04T02:39:14;-1.10;99.90
5617;DHT22;2830;50.656;7.568;2023-12-04T02:41:41;-1.10;99.90
5617;DHT22;2830;50.656;7.568;2023-12-04T02:44:07;-1.10;99.90
5617;DHT22;2830;50.656;7.568;2023-12-04T02:46:34;-1.10;99.90
5617;DHT22;2830;50.656;7.568;2023-12-04T02:49:01;-1.10;99.90
5617;DHT22;2830;50.656;7.568;2023-12-04T02:51:28;-1.10;99.90
5617;DHT22;2830;50.656;7.568;2023-12-04T02:53:55;-1.10;99.90
5617;DHT22;2830;50.656;7.568;2023-12-04T02:56:21;-1.10;99.90
5617;DHT22;2830;50.656;7.568;2023-12-04T02:58:48;-1.10;99.90
5617;DHT22;2830;50.656;7.568;2023-12-04T03:01:15;-1.10;99.90
5617;DHT22;2830;50.656;7.568;2023-12-04T03:03:41;-1.10;99.90
5617;DHT22;2830;50.656;7.568;2023-12-04T03:06:08;-1.10;99.90
5617;DHT22;2830;50.656;7.568;2023-12-04T03:08:35;-1.10;99.90
5617;DHT22;2830;50.656;7.568;2023-12-04T03:11:02;-1.20;99.90
5617;DHT22;2830;50.656;7.568;2023-12-04T03:13:30;-1.20;99.90
5617;DHT22;2830;50.656;7.568;2023-12-04T03:15:56;-1.20;99.90
5617;DHT22;2830;50.656;7.568;2023-12-04T03:18:23;-1.30;99.90
5617;DHT22;2830;50.656;7.568;2023-12-04T03:20:52;-1.30;99.90
5617;DHT22;2830;50.656;7.568;2023-12-04T03:23:18;-1.30;99.90
5617;DHT22;2830;50.656;7.568;2023-12-04T03:25:45;-1.30;99.90
5617;DHT22;2830;50.656;7.568;2023-12-04T03:28:12;-1.30;99.90
5617;DHT22;2830;50.656;7.568;2023-12-04T03:30:39;-1.30;99.90
5617;DHT22;2830;50.656;7.568;2023-12-04T03:33:06;-1.30;99.90
5617;DHT22;2830;50.656;7.568;2023-12-04T03:35:33;-1.30;99.90
5617;DHT22;2830;50.656;7.568;2023-12-04T03:38:00;-1.30;99.90
5617;DHT22;2830;50.656;7.568;2023-12-04T03:40:27;-1.30;99.90
5617;DHT22;2830;50.656;7.568;2023-12-04T03:42:54;-1.40;99.90
5617;DHT22;2830;50.656;7.568;2023-12-04T03:45:20;-1.30;99.90
5617;DHT22;2830;50.656;7.568;2023-12-04T03:47:47;-1.30;99.90
5617;DHT22;2830;50.656;7.568;2023-12-04T03:50:14;-1.30;99.90
5617;DHT22;2830;50.656;7.568;2023-12-04T03:52:41;-1.40;99.90
5617;DHT22;2830;50.656;7.568;2023-12-04T03:55:08;-1.30;99.90
5617;DHT22;2830;50.656;7.568;2023-12-04T03:57:35;-1.30;99.90
5617;DHT22;2830;50.656;7.568;2023-12-04T04:00:03;-1.30;99.90
5617;DHT22;2830;50.656;7.568;2023-12-04T04:02:30;-1.30;99.90
5617;DHT22;2830;50.656;7.568;2023-12-04T04:04:57;-1.30;99.90
5617;DHT22;2830;50.656;7.568;2023-12-04T04:07:24;-1.30;99.90
5617;DHT22;2830;50.656;7.568;2023-12-04T04:09:51;-1.30;99.90
5617;DHT22;2830;50.656;7.568;2023-12-04T04:12:17;-1.30;99.90
5617;DHT22;2830;50.656;7.568;2023-12-04T04:14:44;-1.30;99.90
5617;DHT22;2830;50.656;7.568;2023-12-04T04:17:11;-1.30;99.90
5617;DHT22;2830;50.656;7.568;2023-12-04T04:19:37;-1.30;99.90
5617;DHT22;2830;50.656;7.568;2023-12-04T04:22:04;-1.30;99.90
5617;DHT22;2830;50.656;7.568;2023-12-04T04:24:31;-1.40;99.90
5617;DHT22;2830;50.656;7.568;2023-12-04T04:26:58;-1.30;99.90
5617;DHT22;2830;50.656;7.568;2023-12-04T04:29:24;-1.30;99.90
5617;DHT22;2830;50.656;7.568;2023-12-04T04:31:51;-1.30;99.90
5617;DHT22;2830;50.656;7.568;2023-12-04T04:34:20;-1.40;99.90
5617;DHT22;2830;50.656;7.568;2023-12-04T04:36:47;-1.40;99.90
5617;DHT22;2830;50.656;7.568;2023-12-04T04:39:14;-1.40;99.90
5617;DHT22;2830;50.656;7.568;2023-12-04T04:41:41;-1.40;99.90
5617;DHT22;2830;50.656;7.568;2023-12-04T04:44:07;-1.50;99.90
5617;DHT22;2830;50.656;7.568;2023-12-04T04:46:34;-1.50;99.90
5617;DHT22;2830;50.656;7.568;2023-12-04T04:49:01;-1.50;99.90
5617;DHT22;2830;50.656;7.568;2023-12-04T04:51:28;-1.50;99.90
5617;DHT22;2830;50.656;7.568;2023-12-04T04:53:58;-1.50;99.90
5617;DHT22;2830;50.656;7.568;2023-12-04T04:56:25;-1.50;99.90
5617;DHT22;2830;50.656;7.568;2023-12-04T04:58:51;-1.60;99.90
5617;DHT22;2830;50.656;7.568;2023-12-04T05:01:19;-1.60;99.90
5617;DHT22;2830;50.656;7.568;2023-12-04T05:03:45;-1.60;99.90
5617;DHT22;2830;50.656;7.568;2023-12-04T05:06:12;-1.60;99.90
5617;DHT22;2830;50.656;7.568;2023-12-04T05:08:40;-1.60;99.90
5617;DHT22;2830;50.656;7.568;2023-12-04T05:11:07;-1.70;99.90
5617;DHT22;2830;50.656;7.568;2023-12-04T05:13:33;-1.70;99.90
5617;DHT22;2830;50.656;7.568;2023-12-04T05:16:00;-1.70;99.90
5617;DHT22;2830;50.656;7.568;2023-12-04T05:18:27;-1.70;99.90
5617;DHT22;2830;50.656;7.568;2023-12-04T05:20:53;-1.70;99.90
5617;DHT22;2830;50.656;7.568;2023-12-04T05:23:20;-1.70;99.90
5617;DHT22;2830;50.656;7.568;2023-12-04T05:25:47;-1.70;99.90
5617;DHT22;2830;50.656;7.568;2023-12-04T05:28:16;-1.80;99.90
5617;DHT22;2830;50.656;7.568;2023-12-04T05:30:43;-1.70;99.90
5617;DHT22;2830;50.656;7.568;2023-12-04T05:33:10;-1.80;99.90
5617;DHT22;2830;50.656;7.568;2023-12-04T05:35:37;-1.90;99.90
5617;DHT22;2830;50.656;7.568;2023-12-04T05:38:04;-1.80;99.90
5617;DHT22;2830;50.656;7.568;2023-12-04T05:40:31;-1.80;99.90
5617;DHT22;2830;50.656;7.568;2023-12-04T05:42:57;-1.90;99.90
5617;DHT22;2830;50.656;7.568;2023-12-04T05:45:24;-1.90;99.90
5617;DHT22;2830;50.656;7.568;2023-12-04T05:47:51;-1.90;99.90
5617;DHT22;2830;50.656;7.568;2023-12-04T05:50:19;-1.90;99.90
5617;DHT22;2830;50.656;7.568;2023-12-04T05:52:45;-1.90;99.90
5617;DHT22;2830;50.656;7.568;2023-12-04T05:55:12;-1.90;99.90
5617;DHT22;2830;50.656;7.568;2023-12-04T05:57:39;-1.90;99.90
5617;DHT22;2830;50.656;7.568;2023-12-04T06:00:07;-1.90;99.90
5617;DHT22;2830;50.656;7.568;2023-12-04T06:02:39;-1.80;99.90
5617;DHT22;2830;50.656;7.568;2023-12-04T06:05:06;-1.80;99.90
5617;DHT22;2830;50.656;7.568;2023-12-04T06:07:35;-1.80;99.90
5617;DHT22;2830;50.656;7.568;2023-12-04T06:10:02;-1.70;99.90
5617;DHT22;2830;50.656;7.568;2023-12-04T06:12:32;-1.80;99.90
5617;DHT22;2830;50.656;7.568;2023-12-04T06:14:59;-1.70;99.90
5617;DHT22;2830;50.656;7.568;2023-12-04T06:17:27;-1.70;99.90
5617;DHT22;2830;50.656;7.568;2023-12-04T06:19:54;-1.60;99.90
5617;DHT22;2830;50.656;7.568;2023-12-04T06:22:21;-1.60;99.90
5617;DHT22;2830;50.656;7.568;2023-12-04T06:24:49;-1.70;99.90
5617;DHT22;2830;50.656;7.568;2023-12-04T06:27:17;-1.60;99.90
5617;DHT22;2830;50.656;7.568;2023-12-04T06:29:48;-1.60;99.90
5617;DHT22;2830;50.656;7.568;2023-12-04T06:32:19;-1.60;99.90
5617;DHT22;2830;50.656;7.568;2023-12-04T06:34:46;-1.60;99.90
5617;DHT22;2830;50.656;7.568;2023-12-04T06:37:14;-1.50;99.90
5617;DHT22;2830;50.656;7.568;2023-12-04T06:39:41;-1.50;99.90
5617;DHT22;2830;50.656;7.568;2023-12-04T06:42:08;-1.60;99.90
5617;DHT22;2830;50.656;7.568;2023-12-04T06:44:36;-1.50;99.90
5617;DHT22;2830;50.656;7.568;2023-12-04T06:47:03;-1.50;99.90
5617;DHT22;2830;50.656;7.568;2023-12-04T06:49:32;-1.50;99.90
5617;DHT22;2830;50.656;7.568;2023-12-04T06:52:00;-1.50;99.90
5617;DHT22;2830;50.656;7.568;2023-12-04T06:54:27;-1.50;99.90
5617;DHT22;2830;50.656;7.568;2023-12-04T06:56:53;-1.50;99.90
5617;DHT22;2830;50.656;7.568;2023-12-04T06:59:20;-1.50;99.90
5617;DHT22;2830;50.656;7.568;2023-12-04T07:01:47;-1.40;99.90
5617;DHT22;2830;50.656;7.568;2023-12-04T07:04:15;-1.40;99.90
5617;DHT22;2830;50.656;7.568;2023-12-04T07:06:47;-1.30;99.90
5617;DHT22;2830;50.656;7.568;2023-12-04T07:09:17;-1.30;99.90
5617;DHT22;2830;50.656;7.568;2023-12-04T07:11:44;-1.30;99.90
5617;DHT22;2830;50.656;7.568;2023-12-04T07:14:11;-1.30;99.90
5617;DHT22;2830;50.656;7.568;2023-12-04T07:16:40;-1.30;99.90
5617;DHT22;2830;50.656;7.568;2023-12-04T07:19:07;-1.30;99.90
5617;DHT22;2830;50.656;7.568;2023-12-04T07:21:34;-1.30;99.90
5617;DHT22;2830;50.656;7.568;2023-12-04T07:24:01;-1.30;99.90
5617;DHT22;2830;50.656;7.568;2023-12-04T07:26:28;-1.30;99.90
5617;DHT22;2830;50.656;7.568;2023-12-04T07:28:55;-1.30;99.90
5617;DHT22;2830;50.656;7.568;2023-12-04T07:31:22;-1.30;99.90
5617;DHT22;2830;50.656;7.568;2023-12-04T07:33:48;-1.30;99.90
5617;DHT22;2830;50.656;7.568;2023-12-04T07:36:15;-1.30;99.90
5617;DHT22;2830;50.656;7.568;2023-12-04T07:38:42;-1.20;99.90
5617;DHT22;2830;50.656;7.568;2023-12-04T07:41:08;-1.20;99.90
5617;DHT22;2830;50.656;7.568;2023-12-04T07:43:35;-1.20;99.90
5617;DHT22;2830;50.656;7.568;2023-12-04T07:46:02;-1.20;99.90
5617;DHT22;2830;50.656;7.568;2023-12-04T07:48:30;-1.10;99.90
5617;DHT22;2830;50.656;7.568;2023-12-04T07:50:57;-1.00;99.90
5617;DHT22;2830;50.656;7.568;2023-12-04T07:53:24;-1.10;99.90
5617;DHT22;2830;50.656;7.568;2023-12-04T07:55:50;-1.00;99.90
5617;DHT22;2830;50.656;7.568;2023-12-04T07:58:18;-1.10;99.90
5617;DHT22;2830;50.656;7.568;2023-12-04T08:00:44;-1.00;99.90
5617;DHT22;2830;50.656;7.568;2023-12-04T08:03:11;-1.00;99.90
5617;DHT22;2830;50.656;7.568;2023-12-04T08:05:38;-1.00;99.90
5617;DHT22;2830;50.656;7.568;2023-12-04T08:08:04;-0.90;99.90
5617;DHT22;2830;50.656;7.568;2023-12-04T08:10:31;-0.90;99.90
5617;DHT22;2830;50.656;7.568;2023-12-04T08:13:00;-0.90;99.90
5617;DHT22;2830;50.656;7.568;2023-12-04T08:15:27;-1.00;99.90
5617;DHT22;2830;50.656;7.568;2023-12-04T08:17:54;-1.00;99.90
5617;DHT22;2830;50.656;7.568;2023-12-04T08:20:22;-1.10;99.90
5617;DHT22;2830;50.656;7.568;2023-12-04T08:23:01;-1.00;99.90
5617;DHT22;2830;50.656;7.568;2023-12-04T08:25:29;-0.90;99.90
5617;DHT22;2830;50.656;7.568;2023-12-04T08:27:58;-0.90;99.90
5617;DHT22;2830;50.656;7.568;2023-12-04T08:30:25;-0.90;99.90
5617;DHT22;2830;50.656;7.568;2023-12-04T08:32:53;-0.80;99.90
5617;DHT22;2830;50.656;7.568;2023-12-04T08:35:20;-0.80;99.90
5617;DHT22;2830;50.656;7.568;2023-12-04T08:37:47;-0.90;99.90
5617;DHT22;2830;50.656;7.568;2023-12-04T08:40:14;-0.90;99.90
5617;DHT22;2830;50.656;7.568;2023-12-04T08:42:41;-0.80;99.90
5617;DHT22;2830;50.656;7.568;2023-12-04T08:45:09;-0.80;99.90
5617;DHT22;2830;50.656;7.568;2023-12-04T08:47:36;-0.70;99.90
5617;DHT22;2830;50.656;7.568;2023-12-04T08:50:03;-0.70;99.90
5617;DHT22;2830;50.656;7.568;2023-12-04T08:52:31;-0.70;99.90
5617;DHT22;2830;50.656;7.568;2023-12-04T08:54:58;-0.70;99.90
5617;DHT22;2830;50.656;7.568;2023-12-04T08:57:24;-0.70;99.90
5617;DHT22;2830;50.656;7.568;2023-12-04T08:59:51;-0.70;99.90
5617;DHT22;2830;50.656;7.568;2023-12-04T09:02:18;-0.70;99.90
5617;DHT22;2830;50.656;7.568;2023-12-04T09:04:45;-0.70;99.90
5617;DHT22;2830;50.656;7.568;2023-12-04T09:07:11;-0.70;99.90
5617;DHT22;2830;50.656;7.568;2023-12-04T09:09:59;-0.70;99.90
5617;DHT22;2830;50.656;7.568;2023-12-04T09:12:33;-0.70;99.90
5617;DHT22;2830;50.656;7.568;2023-12-04T09:15:04;-0.70;99.90
5617;DHT22;2830;50.656;7.568;2023-12-04T09:17:33;-0.70;99.90
5617;DHT22;2830;50.656;7.568;2023-12-04T09:20:05;-0.70;99.90
5617;DHT22;2830;50.656;7.568;2023-12-04T09:22:32;-0.60;99.90
5617;DHT22;2830;50.656;7.568;2023-12-04T09:25:16;-0.60;99.90
5617;DHT22;2830;50.656;7.568;2023-12-04T09:27:42;-0.60;99.90
5617;DHT22;2830;50.656;7.568;2023-12-04T09:30:09;-0.50;99.90
5617;DHT22;2830;50.656;7.568;2023-12-04T09:32:36;-0.60;99.90
5617;DHT22;2830;50.656;7.568;2023-12-04T09:35:03;-0.50;99.90
5617;DHT22;2830;50.656;7.568;2023-12-04T09:37:30;-0.50;99.90
5617;DHT22;2830;50.656;7.568;2023-12-04T09:39:57;-0.40;99.90
5617;DHT22;2830;50.656;7.568;2023-12-04T09:42:23;-0.30;99.90
5617;DHT22;2830;50.656;7.568;2023-12-04T09:44:52;-0.30;99.90
5617;DHT22;2830;50.656;7.568;2023-12-04T09:47:19;-0.30;99.90
5617;DHT22;2830;50.656;7.568;2023-12-04T09:49:47;-0.20;99.90
5617;DHT22;2830;50.656;7.568;2023-12-04T09:52:15;-0.20;99.90
5617;DHT22;2830;50.656;7.568;2023-12-04T09:54:42;-0.10;99.90
5617;DHT22;2830;50.656;7.568;2023-12-04T09:57:10;0.00;99.90
5617;DHT22;2830;50.656;7.568;2023-12-04T09:59:37;0.10;99.90
5617;DHT22;2830;50.656;7.568;2023-12-04T10:02:04;0.10;99.90
5617;DHT22;2830;50.656;7.568;2023-12-04T10:04:32;0.10;99.90
5617;DHT22;2830;50.656;7.568;2023-12-04T10:06:59;0.00;99.90
5617;DHT22;2830;50.656;7.568;2023-12-04T10:09:25;-0.10;99.90
5617;DHT22;2830;50.656;7.568;2023-12-04T10:11:53;0.00;99.90
5617;DHT22;2830;50.656;7.568;2023-12-04T10:14:20;-0.20;99.90
5617;DHT22;2830;50.656;7.568;2023-12-04T10:16:48;-0.20;99.90
5617;DHT22;2830;50.656;7.568;2023-12-04T10:19:24;-0.10;99.90
5617;DHT22;2830;50.656;7.568;2023-12-04T10:21:57;-0.10;99.90
5617;DHT22;2830;50.656;7.568;2023-12-04T10:24:28;-0.10;99.90
5617;DHT22;2830;50.656;7.568;2023-12-04T10:26:55;-0.10;99.90
5617;DHT22;2830;50.656;7.568;2023-12-04T10:29:22;-0.10;99.90
5617;DHT22;2830;50.656;7.568;2023-12-04T10:31:50;-0.10;99.90
5617;DHT22;2830;50.656;7.568;2023-12-04T10:34:19;0.00;99.90
5617;DHT22;2830;50.656;7.568;2023-12-04T10:36:47;0.00;99.90
5617;DHT22;2830;50.656;7.568;2023-12-04T10:39:14;0.10;99.90
5617;DHT22;2830;50.656;7.568;2023-12-04T10:41:40;0.00;99.90
5617;DHT22;2830;50.656;7.568;2023-12-04T10:44:07;0.00;99.90
5617;DHT22;2830;50.656;7.568;2023-12-04T10:46:36;0.00;99.90
5617;DHT22;2830;50.656;7.568;2023-12-04T10:49:04;0.10;99.90
5617;DHT22;2830;50.656;7.568;2023-12-04T10:51:33;0.10;99.90
5617;DHT22;2830;50.656;7.568;2023-12-04T10:54:01;0.30;99.90
5617;DHT22;2830;50.656;7.568;2023-12-04T10:56:36;0.20;99.90
5617;DHT22;2830;50.656;7.568;2023-12-04T10:59:10;0.20;99.90
5617;DHT22;2830;50.656;7.568;2023-12-04T11:01:40;0.20;99.90
5617;DHT22;2830;50.656;7.568;2023-12-04T11:04:13;0.30;99.90
5617;DHT22;2830;50.656;7.568;2023-12-04T11:06:45;0.20;99.90
5617;DHT22;2830;50.656;7.568;2023-12-04T11:09:16;0.10;99.90
5617;DHT22;2830;50.656;7.568;2023-12-04T11:11:48;0.10;99.90
5617;DHT22;2830;50.656;7.568;2023-12-04T11:14:21;0.20;99.90
5617;DHT22;2830;50.656;7.568;2023-12-04T11:16:51;0.40;99.90
5617;DHT22;2830;50.656;7.568;2023-12-04T11:19:26;0.50;99.90
5617;DHT22;2830;50.656;7.568;2023-12-04T11:21:58;0.60;99.90
5617;DHT22;2830;50.656;7.568;2023-12-04T11:24:25;0.70;99.90
5617;DHT22;2830;50.656;7.568;2023-12-04T11:26:52;0.70;99.90
5617;DHT22;2830;50.656;7.568;2023-12-04T11:29:19;0.70;99.90
5617;DHT22;2830;50.656;7.568;2023-12-04T11:31:47;0.60;99.90
5617;DHT22;2830;50.656;7.568;2023-12-04T11:34:14;0.50;99.90
5617;DHT22;2830;50.656;7.568;2023-12-04T11:36:41;0.40;99.90
5617;DHT22;2830;50.656;7.568;2023-12-04T11:39:11;0.30;99.90
5617;DHT22;2830;50.656;7.568;2023-12-04T11:41:40;0.20;99.90
5617;DHT22;2830;50.656;7.568;2023-12-04T11:44:14;0.00;99.90
5617;DHT22;2830;50.656;7.568;2023-12-04T11:47:07;-0.20;99.90
5617;DHT22;2830;50.656;7.568;2023-12-04T11:49:33;-0.20;99.90
5617;DHT22;2830;50.656;7.568;2023-12-04T11:52:03;-0.20;99.90
5617;DHT22;2830;50.656;7.568;2023-12-04T11:54:58;-0.10;99.90
5617;DHT22;2830;50.656;7.568;2023-12-04T11:57:26;-0.10;99.90
5617;DHT22;2830;50.656;7.568;2023-12-04T12:00:08;0.00;99.90
5617;DHT22;2830;50.656;7.568;2023-12-04T12:02:35;-0.10;99.90
5617;DHT22;2830;50.656;7.568;2023-12-04T12:05:23;-0.10;99.90
5617;DHT22;2830;50.656;7.568;2023-12-04T12:07:50;-0.10;99.90
5617;DHT22;2830;50.656;7.568;2023-12-04T12:10:17;-0.20;99.90
5617;DHT22;2830;50.656;7.568;2023-12-04T12:12:43;-0.20;99.90
5617;DHT22;2830;50.656;7.568;2023-12-04T12:15:11;-0.30;99.90
5617;DHT22;2830;50.656;7.568;2023-12-04T12:17:38;-0.40;99.90
5617;DHT22;2830;50.656;7.568;2023-12-04T12:20:15;-0.30;99.90
5617;DHT22;2830;50.656;7.568;2023-12-04T12:22:42;-0.20;99.90
5617;DHT22;2830;50.656;7.568;2023-12-04T12:25:11;-0.20;99.90
5617;DHT22;2830;50.656;7.568;2023-12-04T12:27:38;-0.30;99.90
5617;DHT22;2830;50.656;7.568;2023-12-04T12:30:06;-0.30;99.90
5617;DHT22;2830;50.656;7.568;2023-12-04T12:32:34;-0.40;99.90
5617;DHT22;2830;50.656;7.568;2023-12-04T12:35:01;-0.40;99.90
5617;DHT22;2830;50.656;7.568;2023-12-04T12:37:28;-0.30;99.90
5617;DHT22;2830;50.656;7.568;2023-12-04T12:39:56;-0.30;99.90
5617;DHT22;2830;50.656;7.568;2023-12-04T12:42:28;-0.30;99.90
5617;DHT22;2830;50.656;7.568;2023-12-04T12:44:55;-0.40;99.90
5617;DHT22;2830;50.656;7.568;2023-12-04T12:47:25;-0.30;99.90
5617;DHT22;2830;50.656;7.568;2023-12-04T12:49:52;-0.40;99.90
5617;DHT22;2830;50.656;7.568;2023-12-04T12:52:20;-0.30;99.90
5617;DHT22;2830;50.656;7.568;2023-12-04T12:54:46;-0.40;99.90
5617;DHT22;2830;50.656;7.568;2023-12-04T12:57:13;-0.30;99.90
5617;DHT22;2830;50.656;7.568;2023-12-04T12:59:40;-0.40;99.90
5617;DHT22;2830;50.656;7.568;2023-12-04T13:02:07;-0.40;99.90
5617;DHT22;2830;50.656;7.568;2023-12-04T13:04:42;-0.40;99.90
5617;DHT22;2830;50.656;7.568;2023-12-04T13:07:10;-0.40;99.90
5617;DHT22;2830;50.656;7.568;2023-12-04T13:09:38;-0.30;99.90
5617;DHT22;2830;50.656;7.568;2023-12-04T13:12:06;-0.40;99.90
5617;DHT22;2830;50.656;7.568;2023-12-04T13:14:34;-0.40;99.90
5617;DHT22;2830;50.656;7.568;2023-12-04T13:17:04;-0.40;99.90
5617;DHT22;2830;50.656;7.568;2023-12-04T13:19:31;-0.30;99.90
5617;DHT22;2830;50.656;7.568;2023-12-04T13:21:58;-0.30;99.90
5617;DHT22;2830;50.656;7.568;2023-12-04T13:24:25;-0.20;99.90
5617;DHT22;2830;50.656;7.568;2023-12-04T13:26:52;-0.20;99.90
5617;DHT22;2830;50.656;7.568;2023-12-04T13:29:19;-0.30;99.90
5617;DHT22;2830;50.656;7.568;2023-12-04T13:31:46;-0.30;99.90
5617;DHT22;2830;50.656;7.568;2023-12-04T13:34:17;-0.40;99.90
5617;DHT22;2830;50.656;7.568;2023-12-04T13:36:44;-0.40;99.90
5617;DHT22;2830;50.656;7.568;2023-12-04T13:39:11;-0.40;99.90
5617;DHT22;2830;50.656;7.568;2023-12-04T13:41:45;-0.40;99.90
5617;DHT22;2830;50.656;7.568;2023-12-04T13:44:31;-0.40;99.90
5617;DHT22;2830;50.656;7.568;2023-12-04T13:46:59;-0.40;99.90
5617;DHT22;2830;50.656;7.568;2023-12-04T13:49:26;-0.30;99.90
5617;DHT22;2830;50.656;7.568;2023-12-04T13:51:53;-0.10;99.90
5617;DHT22;2830;50.656;7.568;2023-12-04T13:54:21;-0.20;99.90
5617;DHT22;2830;50.656;7.568;2023-12-04T13:56:52;0.00;99.90
5617;DHT22;2830;50.656;7.568;2023-12-04T13:59:21;-0.10;99.90
5617;DHT22;2830;50.656;7.568;2023-12-04T14:01:48;-0.10;99.90
5617;DHT22;2830;50.656;7.568;2023-12-04T14:04:20;-0.20;99.90
5617;DHT22;2830;50.656;7.568;2023-12-04T14:06:47;-0.20;99.90
5617;DHT22;2830;50.656;7.568;2023-12-04T14:09:14;-0.20;99.90
5617;DHT22;2830;50.656;7.568;2023-12-04T14:11:43;-0.20;99.90
5617;DHT22;2830;50.656;7.568;2023-12-04T14:14:14;-0.20;99.90
5617;DHT22;2830;50.656;7.568;2023-12-04T14:16:41;-0.20;99.90
5617;DHT22;2830;50.656;7.568;2023-12-04T14:19:08;-0.20;99.90
5617;DHT22;2830;50.656;7.568;2023-12-04T14:21:35;-0.20;99.90
5617;DHT22;2830;50.656;7.568;2023-12-04T14:24:02;-0.20;99.90
5617;DHT22;2830;50.656;7.568;2023-12-04T14:26:29;-0.20;99.90
5617;DHT22;2830;50.656;7.568;2023-12-04T14:28:55;-0.10;99.90
5617;DHT22;2830;50.656;7.568;2023-12-04T14:31:24;-0.10;99.90
5617;DHT22;2830;50.656;7.568;2023-12-04T14:33:50;-0.10;99.90
5617;DHT22;2830;50.656;7.568;2023-12-04T14:36:19;-0.10;99.90
5617;DHT22;2830;50.656;7.568;2023-12-04T14:38:46;0.00;99.90
5617;DHT22;2830;50.656;7.568;2023-12-04T14:41:13;0.00;99.90
5617;DHT22;2830;50.656;7.568;2023-12-04T14:43:39;0.10;99.90
5617;DHT22;2830;50.656;7.568;2023-12-04T14:46:06;0.10;99.90
5617;DHT22;2830;50.656;7.568;2023-12-04T14:48:37;0.20;99.90
5617;DHT22;2830;50.656;7.568;2023-12-04T14:51:06;0.20;99.90
5617;DHT22;2830;50.656;7.568;2023-12-04T14:53:32;0.20;99.90
5617;DHT22;2830;50.656;7.568;2023-12-04T14:56:11;0.20;99.90
5617;DHT22;2830;50.656;7.568;2023-12-04T14:59:01;0.20;99.90
5617;DHT22;2830;50.656;7.568;2023-12-04T15:01:46;0.20;99.90
5617;DHT22;2830;50.656;7.568;2023-12-04T15:04:28;0.20;99.90
5617;DHT22;2830;50.656;7.568;2023-12-04T15:07:14;0.20;99.90
5617;DHT22;2830;50.656;7.568;2023-12-04T15:09:47;0.20;99.90
5617;DHT22;2830;50.656;7.568;2023-12-04T15:12:37;0.20;99.90
5617;DHT22;2830;50.656;7.568;2023-12-04T15:15:24;0.10;99.90
5617;DHT22;2830;50.656;7.568;2023-12-04T15:18:09;0.10;99.90
5617;DHT22;2830;50.656;7.568;2023-12-04T15:21:03;0.10;99.90
5617;DHT22;2830;50.656;7.568;2023-12-04T15:23:30;0.00;99.90
5617;DHT22;2830;50.656;7.568;2023-12-04T15:25:57;0.00;99.90
5617;DHT22;2830;50.656;7.568;2023-12-04T15:28:24;0.10;99.90
5617;DHT22;2830;50.656;7.568;2023-12-04T15:30:50;0.00;99.90
5617;DHT22;2830;50.656;7.568;2023-12-04T15:33:17;0.00;99.90
5617;DHT22;2830;50.656;7.568;2023-12-04T15:35:47;0.00;99.90
5617;DHT22;2830;50.656;7.568;2023-12-04T15:38:13;0.00;99.90
5617;DHT22;2830;50.656;7.568;2023-12-04T15:40:40;0.00;99.90
5617;DHT22;2830;50.656;7.568;2023-12-04T15:43:07;0.00;99.90
5617;DHT22;2830;50.656;7.568;2023-12-04T15:45:33;0.10;99.90
5617;DHT22;2830;50.656;7.568;2023-12-04T15:48:00;0.00;99.90
5617;DHT22;2830;50.656;7.568;2023-12-04T15:50:27;0.10;99.90
5617;DHT22;2830;50.656;7.568;2023-12-04T15:52:56;0.10;99.90
5617;DHT22;2830;50.656;7.568;2023-12-04T15:55:22;0.00;99.90
5617;DHT22;2830;50.656;7.568;2023-12-04T15:57:53;0.00;99.90
5617;DHT22;2830;50.656;7.568;2023-12-04T16:00:23;0.10;99.90
5617;DHT22;2830;50.656;7.568;2023-12-04T16:02:50;0.10;99.90
5617;DHT22;2830;50.656;7.568;2023-12-04T16:05:17;0.10;99.90
5617;DHT22;2830;50.656;7.568;2023-12-04T16:07:44;0.10;99.90
5617;DHT22;2830;50.656;7.568;2023-12-04T16:10:12;0.10;99.90
5617;DHT22;2830;50.656;7.568;2023-12-04T16:12:40;0.10;99.90